sensor_id;sensor_type;location;lat;lon;timestamp;pressure;altitude;pressure_sealevel;temperature;humidity
67545;BME280;54380;47.770;11.150;2022-09-29T00:00:13;93405.69;;;10.80;62.03
67545;BME280;54380;47.770;11.150;2022-09-29T00:02:40;93404.88;;;10.79;62.07
67545;BME280;54380;47.770;11.150;2022-09-29T00:05:07;93403.03;;;10.80;62.18
67545;BME280;54380;47.770;11.150;2022-09-29T00:07:34;93409.88;;;10.81;62.25
67545;BME280;54380;47.770;11.150;2022-09-29T00:10:02;93397.47;;;10.81;62.37
67545;BME280;54380;47.770;11.150;2022-09-29T00:12:31;93401.44;;;10.79;62.41
67545;BME280;54380;47.770;11.150;2022-09-29T00:14:59;93404.88;;;10.79;62.37
67545;BME280;54380;47.770;11.150;2022-09-29T00:17:26;93403.03;;;10.80;62.19
67545;BME280;54380;47.770;11.150;2022-09-29T00:19:53;93400.41;;;10.80;62.49
67545;BME280;54380;47.770;11.150;2022-09-29T00:22:21;93404.09;;;10.79;62.56
67545;BME280;54380;47.770;11.150;2022-09-29T00:24:48;93404.88;;;10.79;62.00
67545;BME280;54380;47.770;11.150;2022-09-29T00:27:15;93404.09;;;10.79;62.01
67545;BME280;54380;47.770;11.150;2022-09-29T00:29:42;93405.44;;;10.76;62.24
67545;BME280;54380;47.770;11.150;2022-09-29T00:32:11;93398.31;;;10.76;62.10
67545;BME280;54380;47.770;11.150;2022-09-29T00:34:38;93390.91;;;10.79;62.18
67545;BME280;54380;47.770;11.150;2022-09-29T00:37:05;93383.75;;;10.79;61.81
67545;BME280;54380;47.770;11.150;2022-09-29T00:39:33;93379.56;;;10.78;62.32
67545;BME280;54380;47.770;11.150;2022-09-29T00:42:00;93376.66;;;10.80;62.29
67545;BME280;54380;47.770;11.150;2022-09-29T00:44:54;93379.75;;;10.82;61.73
67545;BME280;54380;47.770;11.150;2022-09-29T00:47:27;93379.84;;;10.76;62.15
67545;BME280;54380;47.770;11.150;2022-09-29T00:49:59;93388.34;;;10.73;62.08
67545;BME280;54380;47.770;11.150;2022-09-29T00:52:31;93396.81;;;10.70;62.07
67545;BME280;54380;47.770;11.150;2022-09-29T00:55:02;93395.53;;;10.68;62.34
67545;BME280;54380;47.770;11.150;2022-09-29T00:57:35;93387.63;;;10.68;62.39
67545;BME280;54380;47.770;11.150;2022-09-29T01:00:07;93388.41;;;10.68;62.15
67545;BME280;54380;47.770;11.150;2022-09-29T01:02:39;93393.91;;;10.72;62.61
67545;BME280;54380;47.770;11.150;2022-09-29T01:05:11;93393.09;;;10.71;62.04
67545;BME280;54380;47.770;11.150;2022-09-29T01:07:40;93395.28;;;10.69;62.36
67545;BME280;54380;47.770;11.150;2022-09-29T01:10:10;93377.06;;;10.68;62.15
67545;BME280;54380;47.770;11.150;2022-09-29T01:12:38;93386.84;;;10.67;62.08
67545;BME280;54380;47.770;11.150;2022-09-29T01:15:05;93384.47;;;10.66;62.23
67545;BME280;54380;47.770;11.150;2022-09-29T01:17:34;93379.97;;;10.66;61.85
67545;BME280;54380;47.770;11.150;2022-09-29T01:20:07;93381.25;;;10.69;62.14
67545;BME280;54380;47.770;11.150;2022-09-29T01:23:21;93375.22;;;10.68;62.33
67545;BME280;54380;47.770;11.150;2022-09-29T01:26:25;93368.38;;;10.67;62.43
67545;BME280;54380;47.770;11.150;2022-09-29T01:29:09;93364.47;;;10.65;62.79
67545;BME280;54380;47.770;11.150;2022-09-29T01:34:33;93364.97;;;10.48;62.45
67545;BME280;54380;47.770;11.150;2022-09-29T01:37:10;93370.03;;;10.44;62.46
67545;BME280;54380;47.770;11.150;2022-09-29T01:39:42;93371.38;;;10.42;62.71
67545;BME280;54380;47.770;11.150;2022-09-29T01:42:16;93380.56;;;10.44;62.62
67545;BME280;54380;47.770;11.150;2022-09-29T01:44:47;93383.22;;;10.44;62.49
67545;BME280;54380;47.770;11.150;2022-09-29T01:47:19;93379.78;;;10.44;62.82
67545;BME280;54380;47.770;11.150;2022-09-29T01:49:56;93372.38;;;10.46;62.46
67545;BME280;54380;47.770;11.150;2022-09-29T01:52:27;93374.44;;;10.49;62.95
67545;BME280;54380;47.770;11.150;2022-09-29T01:54:58;93374.16;;;10.50;62.99
67545;BME280;54380;47.770;11.150;2022-09-29T01:57:30;93379.16;;;10.52;62.91
67545;BME280;54380;47.770;11.150;2022-09-29T02:00:03;93378.88;;;10.53;62.96
67545;BME280;54380;47.770;11.150;2022-09-29T02:02:44;93385.44;;;10.56;62.58
67545;BME280;54380;47.770;11.150;2022-09-29T02:05:18;93384.56;;;10.61;62.63
67545;BME280;54380;47.770;11.150;2022-09-29T02:07:49;93370.88;;;10.59;62.53
67545;BME280;54380;47.770;11.150;2022-09-29T02:10:18;93373.03;;;10.57;62.42
67545;BME280;54380;47.770;11.150;2022-09-29T02:12:51;93373.28;;;10.55;62.38
67545;BME280;54380;47.770;11.150;2022-09-29T02:15:22;93376.25;;;10.53;62.38
67545;BME280;54380;47.770;11.150;2022-09-29T02:17:53;93380.72;;;10.53;62.50
67545;BME280;54380;47.770;11.150;2022-09-29T02:20:22;93376.50;;;10.52;62.62
67545;BME280;54380;47.770;11.150;2022-09-29T02:22:50;93379.94;;;10.52;62.20
67545;BME280;54380;47.770;11.150;2022-09-29T02:25:18;93385.72;;;10.54;62.48
67545;BME280;54380;47.770;11.150;2022-09-29T02:27:46;93376.72;;;10.55;62.88
67545;BME280;54380;47.770;11.150;2022-09-29T02:30:16;93375.94;;;10.55;62.69
67545;BME280;54380;47.770;11.150;2022-09-29T02:32:44;93375.94;;;10.55;62.78
67545;BME280;54380;47.770;11.150;2022-09-29T02:35:13;93367.75;;;10.57;62.86
67545;BME280;54380;47.770;11.150;2022-09-29T02:37:49;93360.34;;;10.59;62.88
67545;BME280;54380;47.770;11.150;2022-09-29T02:40:27;93366.91;;;10.61;62.95
67545;BME280;54380;47.770;11.150;2022-09-29T02:43:13;93362.41;;;10.62;62.36
67545;BME280;54380;47.770;11.150;2022-09-29T02:45:55;93365.63;;;10.59;62.24
67545;BME280;54380;47.770;11.150;2022-09-29T02:48:45;93361.19;;;10.54;62.64
67545;BME280;54380;47.770;11.150;2022-09-29T02:51:18;93360.97;;;10.50;62.71
67545;BME280;54380;47.770;11.150;2022-09-29T02:54:00;93363.31;;;10.52;62.57
67545;BME280;54380;47.770;11.150;2022-09-29T02:56:39;93361.78;;;10.51;62.78
67545;BME280;54380;47.770;11.150;2022-09-29T02:59:13;93356.19;;;10.52;62.29
67545;BME280;54380;47.770;11.150;2022-09-29T03:01:47;93356.41;;;10.56;62.45
67545;BME280;54380;47.770;11.150;2022-09-29T03:04:15;93360.34;;;10.59;62.27
67545;BME280;54380;47.770;11.150;2022-09-29T03:06:42;93357.97;;;10.57;62.52
67545;BME280;54380;47.770;11.150;2022-09-29T03:09:11;93360.41;;;10.53;62.52
67545;BME280;54380;47.770;11.150;2022-09-29T03:11:38;93358.31;;;10.50;62.69
67545;BME280;54380;47.770;11.150;2022-09-29T03:14:05;93361.25;;;10.49;62.48
67545;BME280;54380;47.770;11.150;2022-09-29T03:16:35;93359.72;;;10.48;62.62
67545;BME280;54380;47.770;11.150;2022-09-29T03:19:02;93351.22;;;10.51;62.36
67545;BME280;54380;47.770;11.150;2022-09-29T03:21:31;93337.44;;;10.54;63.02
67545;BME280;54380;47.770;11.150;2022-09-29T03:23:58;93332.44;;;10.52;63.05
67545;BME280;54380;47.770;11.150;2022-09-29T03:26:27;93335.16;;;10.47;63.05
67545;BME280;54380;47.770;11.150;2022-09-29T03:28:56;93341.00;;;10.44;63.13
67545;BME280;54380;47.770;11.150;2022-09-29T03:31:23;93345.00;;;10.42;63.12
67545;BME280;54380;47.770;11.150;2022-09-29T03:33:50;93341.59;;;10.41;63.11
67545;BME280;54380;47.770;11.150;2022-09-29T03:36:17;93343.44;;;10.41;62.82
67545;BME280;54380;47.770;11.150;2022-09-29T03:38:44;93342.38;;;10.42;62.84
67545;BME280;54380;47.770;11.150;2022-09-29T03:41:13;93346.59;;;10.43;62.92
67545;BME280;54380;47.770;11.150;2022-09-29T03:43:42;93345.22;;;10.45;62.99
67545;BME280;54380;47.770;11.150;2022-09-29T03:46:09;93356.00;;;10.49;63.19
67545;BME280;54380;47.770;11.150;2022-09-29T03:48:36;93356.75;;;10.49;62.68
67545;BME280;54380;47.770;11.150;2022-09-29T03:51:04;93357.84;;;10.48;62.72
67545;BME280;54380;47.770;11.150;2022-09-29T03:53:32;93353.34;;;10.49;62.48
67545;BME280;54380;47.770;11.150;2022-09-29T03:56:00;93352.25;;;10.50;62.66
67545;BME280;54380;47.770;11.150;2022-09-29T03:58:27;93344.16;;;10.46;63.28
67545;BME280;54380;47.770;11.150;2022-09-29T04:00:55;93343.16;;;10.42;62.95
67545;BME280;54380;47.770;11.150;2022-09-29T04:03:22;93347.44;;;10.38;62.83
67545;BME280;54380;47.770;11.150;2022-09-29T04:05:49;93351.19;;;10.32;63.41
67545;BME280;54380;47.770;11.150;2022-09-29T04:08:16;93355.50;;;10.28;63.65
67545;BME280;54380;47.770;11.150;2022-09-29T04:10:45;93360.22;;;10.26;63.65
67545;BME280;54380;47.770;11.150;2022-09-29T04:13:13;93357.91;;;10.24;63.50
67545;BME280;54380;47.770;11.150;2022-09-29T04:15:45;93355.25;;;10.24;63.49
67545;BME280;54380;47.770;11.150;2022-09-29T04:18:13;93357.09;;;10.24;63.59
67545;BME280;54380;47.770;11.150;2022-09-29T04:20:40;93352.91;;;10.23;63.56
67545;BME280;54380;47.770;11.150;2022-09-29T04:23:08;93346.06;;;10.22;63.80
67545;BME280;54380;47.770;11.150;2022-09-29T04:25:35;93344.41;;;10.26;63.04
67545;BME280;54380;47.770;11.150;2022-09-29T04:28:02;93345.72;;;10.28;63.28
67545;BME280;54380;47.770;11.150;2022-09-29T04:30:29;93349.63;;;10.31;62.96
67545;BME280;54380;47.770;11.150;2022-09-29T04:32:56;93354.06;;;10.36;63.46
67545;BME280;54380;47.770;11.150;2022-09-29T04:35:32;93351.34;;;10.41;62.91
67545;BME280;54380;47.770;11.150;2022-09-29T04:38:02;93353.69;;;10.42;63.05
67545;BME280;54380;47.770;11.150;2022-09-29T04:40:29;93347.94;;;10.40;63.23
67545;BME280;54380;47.770;11.150;2022-09-29T04:42:58;93341.09;;;10.39;62.92
67545;BME280;54380;47.770;11.150;2022-09-29T04:45:25;93332.91;;;10.41;62.98
67545;BME280;54380;47.770;11.150;2022-09-29T04:47:52;93336.81;;;10.43;63.32
67545;BME280;54380;47.770;11.150;2022-09-29T04:50:19;93337.59;;;10.44;63.35
67545;BME280;54380;47.770;11.150;2022-09-29T04:52:48;93336.50;;;10.45;62.84
67545;BME280;54380;47.770;11.150;2022-09-29T04:55:15;93334.97;;;10.44;62.50
67545;BME280;54380;47.770;11.150;2022-09-29T04:57:45;93341.00;;;10.44;62.59
67545;BME280;54380;47.770;11.150;2022-09-29T05:00:14;93339.44;;;10.43;63.06
67545;BME280;54380;47.770;11.150;2022-09-29T05:02:41;93334.97;;;10.44;63.00
67545;BME280;54380;47.770;11.150;2022-09-29T05:05:15;93328.91;;;10.43;62.86
67545;BME280;54380;47.770;11.150;2022-09-29T05:07:42;93328.13;;;10.43;62.81
67545;BME280;54380;47.770;11.150;2022-09-29T05:10:11;93333.09;;;10.44;62.81
67545;BME280;54380;47.770;11.150;2022-09-29T05:12:38;93332.03;;;10.45;62.60
67545;BME280;54380;47.770;11.150;2022-09-29T05:15:06;93332.50;;;10.47;62.60
67545;BME280;54380;47.770;11.150;2022-09-29T05:17:33;93332.81;;;10.46;62.83
67545;BME280;54380;47.770;11.150;2022-09-29T05:20:00;93329.19;;;10.42;62.70
67545;BME280;54380;47.770;11.150;2022-09-29T05:22:27;93321.06;;;10.38;62.71
67545;BME280;54380;47.770;11.150;2022-09-29T05:24:54;93320.84;;;10.35;62.71
67545;BME280;54380;47.770;11.150;2022-09-29T05:27:22;93325.31;;;10.34;62.67
67545;BME280;54380;47.770;11.150;2022-09-29T05:29:49;93325.63;;;10.32;63.02
67545;BME280;54380;47.770;11.150;2022-09-29T05:32:16;93329.06;;;10.33;62.52
67545;BME280;54380;47.770;11.150;2022-09-29T05:34:43;93325.06;;;10.36;62.60
67545;BME280;54380;47.770;11.150;2022-09-29T05:37:10;93331.09;;;10.36;62.90
67545;BME280;54380;47.770;11.150;2022-09-29T05:39:37;93320.28;;;10.38;62.93
67545;BME280;54380;47.770;11.150;2022-09-29T05:42:07;93317.91;;;10.36;62.79
67545;BME280;54380;47.770;11.150;2022-09-29T05:44:37;93313.44;;;10.37;62.40
67545;BME280;54380;47.770;11.150;2022-09-29T05:47:04;93309.75;;;10.38;62.52
67545;BME280;54380;47.770;11.150;2022-09-29T05:49:31;93306.28;;;10.37;62.57
67545;BME280;54380;47.770;11.150;2022-09-29T05:51:59;93306.28;;;10.37;63.03
67545;BME280;54380;47.770;11.150;2022-09-29T05:54:26;93312.56;;;10.41;63.37
67545;BME280;54380;47.770;11.150;2022-09-29T05:56:54;93319.91;;;10.44;62.42
67545;BME280;54380;47.770;11.150;2022-09-29T05:59:21;93328.59;;;10.45;62.28
67545;BME280;54380;47.770;11.150;2022-09-29T06:01:50;93321.50;;;10.45;62.60
67545;BME280;54380;47.770;11.150;2022-09-29T06:04:17;93328.81;;;10.48;62.44
67545;BME280;54380;47.770;11.150;2022-09-29T06:06:44;93327.94;;;10.53;62.57
67545;BME280;54380;47.770;11.150;2022-09-29T06:09:13;93324.25;;;10.54;62.36
67545;BME280;54380;47.770;11.150;2022-09-29T06:11:40;93324.44;;;10.58;62.25
67545;BME280;54380;47.770;11.150;2022-09-29T06:14:07;93316.25;;;10.59;62.24
67545;BME280;54380;47.770;11.150;2022-09-29T06:16:34;93314.13;;;10.61;62.57
67545;BME280;54380;47.770;11.150;2022-09-29T06:19:04;93316.47;;;10.63;62.12
67545;BME280;54380;47.770;11.150;2022-09-29T06:21:31;93309.03;;;10.65;62.20
67545;BME280;54380;47.770;11.150;2022-09-29T06:24:00;93317.47;;;10.67;62.06
67545;BME280;54380;47.770;11.150;2022-09-29T06:26:28;93321.66;;;10.68;62.50
67545;BME280;54380;47.770;11.150;2022-09-29T06:28:56;93317.66;;;10.70;62.25
67545;BME280;54380;47.770;11.150;2022-09-29T06:31:25;93319.22;;;10.71;62.33
67545;BME280;54380;47.770;11.150;2022-09-29T06:33:55;93325.50;;;10.75;62.00
67545;BME280;54380;47.770;11.150;2022-09-29T06:36:28;93324.91;;;10.79;62.48
67545;BME280;54380;47.770;11.150;2022-09-29T06:39:15;93319.94;;;10.77;62.30
67545;BME280;54380;47.770;11.150;2022-09-29T06:41:43;93318.59;;;10.80;62.55
67545;BME280;54380;47.770;11.150;2022-09-29T06:44:14;93315.81;;;10.85;62.52
67545;BME280;54380;47.770;11.150;2022-09-29T06:46:41;93324.25;;;10.87;62.38
67545;BME280;54380;47.770;11.150;2022-09-29T06:49:10;93315.56;;;10.86;62.68
67545;BME280;54380;47.770;11.150;2022-09-29T06:51:38;93313.78;;;10.82;62.26
67545;BME280;54380;47.770;11.150;2022-09-29T06:54:12;93320.13;;;10.81;62.56
67545;BME280;54380;47.770;11.150;2022-09-29T06:56:41;93319.34;;;10.80;62.66
67545;BME280;54380;47.770;11.150;2022-09-29T06:59:08;93324.34;;;10.82;62.16
67545;BME280;54380;47.770;11.150;2022-09-29T07:01:35;93325.59;;;10.84;62.68
67545;BME280;54380;47.770;11.150;2022-09-29T07:04:02;93332.16;;;10.87;62.30
67545;BME280;54380;47.770;11.150;2022-09-29T07:06:29;93329.75;;;10.90;62.30
67545;BME280;54380;47.770;11.150;2022-09-29T07:08:58;93328.66;;;10.91;62.29
67545;BME280;54380;47.770;11.150;2022-09-29T07:11:27;93329.94;;;10.94;61.94
67545;BME280;54380;47.770;11.150;2022-09-29T07:13:55;93318.81;;;10.97;61.89
67545;BME280;54380;47.770;11.150;2022-09-29T07:16:23;93327.50;;;10.97;61.58
67545;BME280;54380;47.770;11.150;2022-09-29T07:18:50;93328.84;;;10.95;61.64
67545;BME280;54380;47.770;11.150;2022-09-29T07:21:18;93330.13;;;10.97;61.87
67545;BME280;54380;47.770;11.150;2022-09-29T07:23:46;93327.50;;;10.97;61.54
67545;BME280;54380;47.770;11.150;2022-09-29T07:26:15;93326.13;;;11.00;62.13
67545;BME280;54380;47.770;11.150;2022-09-29T07:28:43;93326.63;;;11.02;62.31
67545;BME280;54380;47.770;11.150;2022-09-29T07:31:13;93327.13;;;11.04;61.78
67545;BME280;54380;47.770;11.150;2022-09-29T07:33:42;93330.38;;;11.01;61.59
67545;BME280;54380;47.770;11.150;2022-09-29T07:36:09;93334.06;;;11.00;61.63
67545;BME280;54380;47.770;11.150;2022-09-29T07:38:37;93325.56;;;11.03;61.63
67545;BME280;54380;47.770;11.150;2022-09-29T07:41:06;93322.81;;;11.08;61.59
67545;BME280;54380;47.770;11.150;2022-09-29T07:43:35;93324.09;;;11.11;61.38
67545;BME280;54380;47.770;11.150;2022-09-29T07:46:02;93333.22;;;11.18;61.31
67545;BME280;54380;47.770;11.150;2022-09-29T07:48:30;93326.66;;;11.16;61.64
67545;BME280;54380;47.770;11.150;2022-09-29T07:51:02;93336.94;;;11.17;61.08
67545;BME280;54380;47.770;11.150;2022-09-29T07:53:30;93335.56;;;11.20;61.23
67545;BME280;54380;47.770;11.150;2022-09-29T07:56:01;93333.63;;;11.26;60.96
67545;BME280;54380;47.770;11.150;2022-09-29T07:58:29;93334.31;;;11.31;61.19
67545;BME280;54380;47.770;11.150;2022-09-29T08:00:59;93342.44;;;11.35;61.01
67545;BME280;54380;47.770;11.150;2022-09-29T08:03:26;93336.38;;;11.34;60.93
67545;BME280;54380;47.770;11.150;2022-09-29T08:05:56;93347.25;;;11.33;60.94
67545;BME280;54380;47.770;11.150;2022-09-29T08:08:26;93343.00;;;11.32;61.03
67545;BME280;54380;47.770;11.150;2022-09-29T08:11:00;93346.75;;;11.31;61.11
67545;BME280;54380;47.770;11.150;2022-09-29T08:13:27;93346.25;;;11.29;61.08
67545;BME280;54380;47.770;11.150;2022-09-29T08:15:56;93353.31;;;11.33;61.20
67545;BME280;54380;47.770;11.150;2022-09-29T08:18:25;93355.53;;;11.40;61.28
67545;BME280;54380;47.770;11.150;2022-09-29T08:20:52;93353.41;;;11.42;61.08
67545;BME280;54380;47.770;11.150;2022-09-29T08:23:19;93349.88;;;11.47;61.24
67545;BME280;54380;47.770;11.150;2022-09-29T08:25:46;93344.00;;;11.50;60.99
67545;BME280;54380;47.770;11.150;2022-09-29T08:28:27;93353.72;;;11.54;60.83
67545;BME280;54380;47.770;11.150;2022-09-29T08:31:01;93361.53;;;11.59;61.01
67545;BME280;54380;47.770;11.150;2022-09-29T08:33:32;93366.72;;;11.64;60.85
67545;BME280;54380;47.770;11.150;2022-09-29T08:35:59;93370.16;;;11.65;60.87
67545;BME280;54380;47.770;11.150;2022-09-29T08:38:27;93366.16;;;11.68;61.10
67545;BME280;54380;47.770;11.150;2022-09-29T08:40:55;93376.13;;;11.71;61.07
67545;BME280;54380;47.770;11.150;2022-09-29T08:43:25;93368.50;;;11.69;60.53
67545;BME280;54380;47.770;11.150;2022-09-29T08:46:05;93373.28;;;11.67;60.09
67545;BME280;54380;47.770;11.150;2022-09-29T08:48:38;93373.28;;;11.67;60.58
67545;BME280;54380;47.770;11.150;2022-09-29T08:51:25;93376.22;;;11.65;60.21
67545;BME280;54380;47.770;11.150;2022-09-29T08:54:14;93380.13;;;11.68;60.38
67545;BME280;54380;47.770;11.150;2022-09-29T08:57:00;93372.53;;;11.67;60.25
67545;BME280;54380;47.770;11.150;2022-09-29T08:59:28;93384.84;;;11.71;60.56
67545;BME280;54380;47.770;11.150;2022-09-29T09:02:05;93383.88;;;11.81;60.45
67545;BME280;54380;47.770;11.150;2022-09-29T09:05:08;93383.97;;;11.90;60.38
67545;BME280;54380;47.770;11.150;2022-09-29T09:07:42;93388.69;;;11.93;59.97
67545;BME280;54380;47.770;11.150;2022-09-29T09:10:24;93387.03;;;11.97;60.22
67545;BME280;54380;47.770;11.150;2022-09-29T09:13:06;93389.84;;;12.00;60.15
67545;BME280;54380;47.770;11.150;2022-09-29T09:15:48;93394.25;;;12.05;60.19
67545;BME280;54380;47.770;11.150;2022-09-29T09:18:30;93395.25;;;12.09;59.89
67545;BME280;54380;47.770;11.150;2022-09-29T09:21:06;93400.22;;;12.11;59.80
67545;BME280;54380;47.770;11.150;2022-09-29T09:23:45;93405.53;;;12.11;60.16
67545;BME280;54380;47.770;11.150;2022-09-29T09:26:15;93407.69;;;12.08;60.00
67545;BME280;54380;47.770;11.150;2022-09-29T09:28:48;93413.47;;;12.11;60.26
67545;BME280;54380;47.770;11.150;2022-09-29T09:31:22;93409.44;;;12.13;59.87
67545;BME280;54380;47.770;11.150;2022-09-29T09:33:56;93413.16;;;12.12;59.95
67545;BME280;54380;47.770;11.150;2022-09-29T09:36:35;93415.03;;;12.12;60.26
67545;BME280;54380;47.770;11.150;2022-09-29T09:39:07;93406.28;;;12.11;60.17
67545;BME280;54380;47.770;11.150;2022-09-29T09:41:37;93403.97;;;12.10;60.05
67545;BME280;54380;47.770;11.150;2022-09-29T09:44:11;93407.19;;;12.06;60.11
67545;BME280;54380;47.770;11.150;2022-09-29T09:46:42;93403.97;;;12.10;60.14
67545;BME280;54380;47.770;11.150;2022-09-29T09:49:16;93404.63;;;12.15;60.14
67545;BME280;54380;47.770;11.150;2022-09-29T09:51:53;93404.25;;;12.22;60.00
67545;BME280;54380;47.770;11.150;2022-09-29T09:54:28;93404.44;;;12.25;60.00
67545;BME280;54380;47.770;11.150;2022-09-29T09:57:09;93403.56;;;12.30;60.37
67545;BME280;54380;47.770;11.150;2022-09-29T09:59:50;93406.97;;;12.30;60.15
67545;BME280;54380;47.770;11.150;2022-09-29T10:02:23;93408.16;;;12.24;59.68
67545;BME280;54380;47.770;11.150;2022-09-29T10:04:51;93412.75;;;12.19;59.95
67545;BME280;54380;47.770;11.150;2022-09-29T10:07:21;93409.06;;;12.20;60.08
67545;BME280;54380;47.770;11.150;2022-09-29T10:09:49;93403.16;;;12.23;60.35
67545;BME280;54380;47.770;11.150;2022-09-29T10:12:19;93412.38;;;12.25;60.00
67545;BME280;54380;47.770;11.150;2022-09-29T10:14:47;93412.38;;;12.25;59.93
67545;BME280;54380;47.770;11.150;2022-09-29T10:17:16;93412.88;;;12.27;60.20
67545;BME280;54380;47.770;11.150;2022-09-29T10:19:58;93417.06;;;12.28;60.21
67545;BME280;54380;47.770;11.150;2022-09-29T10:22:28;93423.91;;;12.29;59.89
67545;BME280;54380;47.770;11.150;2022-09-29T10:25:06;93423.63;;;12.31;59.93
67545;BME280;54380;47.770;11.150;2022-09-29T10:27:39;93418.34;;;12.31;59.84
67545;BME280;54380;47.770;11.150;2022-09-29T10:30:16;93421.88;;;12.26;59.99
67545;BME280;54380;47.770;11.150;2022-09-29T10:32:44;93424.81;;;12.25;59.88
67545;BME280;54380;47.770;11.150;2022-09-29T10:35:18;93432.75;;;12.25;60.01
67545;BME280;54380;47.770;11.150;2022-09-29T10:37:57;93435.91;;;12.27;60.14
67545;BME280;54380;47.770;11.150;2022-09-29T10:40:25;93430.13;;;12.25;60.01
67545;BME280;54380;47.770;11.150;2022-09-29T10:42:52;93427.97;;;12.27;60.23
67545;BME280;54380;47.770;11.150;2022-09-29T10:45:20;93439.50;;;12.31;60.17
67545;BME280;54380;47.770;11.150;2022-09-29T10:48:06;93434.88;;;12.37;60.14
67545;BME280;54380;47.770;11.150;2022-09-29T10:50:35;93427.25;;;12.35;60.08
67545;BME280;54380;47.770;11.150;2022-09-29T10:53:15;93436.75;;;12.36;60.02
67545;BME280;54380;47.770;11.150;2022-09-29T10:55:50;93438.31;;;12.37;60.09
67545;BME280;54380;47.770;11.150;2022-09-29T10:58:20;93428.53;;;12.38;59.85
67545;BME280;54380;47.770;11.150;2022-09-29T11:01:10;93433.22;;;12.41;60.04
67545;BME280;54380;47.770;11.150;2022-09-29T11:03:45;93435.47;;;12.47;59.73
67545;BME280;54380;47.770;11.150;2022-09-29T11:06:14;93436.22;;;12.48;59.87
67545;BME280;54380;47.770;11.150;2022-09-29T11:08:57;93442.34;;;12.48;59.79
67545;BME280;54380;47.770;11.150;2022-09-29T11:11:27;93443.72;;;12.46;59.92
67545;BME280;54380;47.770;11.150;2022-09-29T11:13:55;93444.31;;;12.43;60.14
67545;BME280;54380;47.770;11.150;2022-09-29T11:16:26;93453.53;;;12.45;60.18
67545;BME280;54380;47.770;11.150;2022-09-29T11:18:59;93460.38;;;12.46;59.71
67545;BME280;54380;47.770;11.150;2022-09-29T11:21:59;93457.72;;;12.46;59.68
67545;BME280;54380;47.770;11.150;2022-09-29T11:27:48;93455.66;;;12.43;60.61
67545;BME280;54380;47.770;11.150;2022-09-29T11:30:19;93453.03;;;12.43;60.06
67545;BME280;54380;47.770;11.150;2022-09-29T11:33:01;93455.06;;;12.46;60.22
67545;BME280;54380;47.770;11.150;2022-09-29T11:35:38;93459.78;;;12.49;60.44
67545;BME280;54380;47.770;11.150;2022-09-29T11:38:21;93467.59;;;12.55;60.09
67545;BME280;54380;47.770;11.150;2022-09-29T11:41:01;93463.59;;;12.57;59.91
67545;BME280;54380;47.770;11.150;2022-09-29T11:43:42;93461.72;;;12.58;59.98
67545;BME280;54380;47.770;11.150;2022-09-29T11:46:23;93466.50;;;12.56;60.00
67545;BME280;54380;47.770;11.150;2022-09-29T11:51:59;93474.00;;;12.54;60.08
67545;BME280;54380;47.770;11.150;2022-09-29T11:54:47;93470.84;;;12.51;60.08
67545;BME280;54380;47.770;11.150;2022-09-29T11:57:28;93465.34;;;12.48;60.40
67545;BME280;54380;47.770;11.150;2022-09-29T12:00:06;93468.59;;;12.45;60.18
67545;BME280;54380;47.770;11.150;2022-09-29T12:03:03;93460.47;;;12.41;60.19
67545;BME280;54380;47.770;11.150;2022-09-29T12:05:44;93463.41;;;12.40;60.03
67545;BME280;54380;47.770;11.150;2022-09-29T12:08:22;93466.03;;;12.40;59.87
67545;BME280;54380;47.770;11.150;2022-09-29T12:10:57;93460.56;;;12.36;60.05
67545;BME280;54380;47.770;11.150;2022-09-29T12:13:46;93460.19;;;12.29;60.25
67545;BME280;54380;47.770;11.150;2022-09-29T12:16:19;93458.63;;;12.28;60.26
67545;BME280;54380;47.770;11.150;2022-09-29T12:18:50;93460.94;;;12.29;60.06
67545;BME280;54380;47.770;11.150;2022-09-29T12:21:25;93461.94;;;12.34;60.46
67545;BME280;54380;47.770;11.150;2022-09-29T12:23:55;93457.63;;;12.38;60.40
67545;BME280;54380;47.770;11.150;2022-09-29T12:26:24;93461.34;;;12.37;60.37
67545;BME280;54380;47.770;11.150;2022-09-29T12:28:53;93460.56;;;12.36;60.22
67545;BME280;54380;47.770;11.150;2022-09-29T12:31:26;93469.00;;;12.38;60.41
67545;BME280;54380;47.770;11.150;2022-09-29T12:33:59;93469.78;;;12.39;60.93
67545;BME280;54380;47.770;11.150;2022-09-29T12:36:37;93465.47;;;12.43;60.48
67545;BME280;54380;47.770;11.150;2022-09-29T12:39:24;93461.63;;;12.49;60.28
67545;BME280;54380;47.770;11.150;2022-09-29T12:41:57;93472.22;;;12.49;60.00
67545;BME280;54380;47.770;11.150;2022-09-29T12:44:29;93465.66;;;12.46;60.11
67545;BME280;54380;47.770;11.150;2022-09-29T12:47:03;93469.75;;;12.52;60.59
67545;BME280;54380;47.770;11.150;2022-09-29T12:49:38;93470.25;;;12.55;60.20
67545;BME280;54380;47.770;11.150;2022-09-29T12:52:14;93477.09;;;12.56;60.20
67545;BME280;54380;47.770;11.150;2022-09-29T12:54:47;93471.72;;;12.61;60.15
67545;BME280;54380;47.770;11.150;2022-09-29T12:57:19;93471.72;;;12.61;60.03
67545;BME280;54380;47.770;11.150;2022-09-29T12:59:52;93476.31;;;12.55;59.93
67545;BME280;54380;47.770;11.150;2022-09-29T13:02:40;93474.56;;;12.50;59.78
67545;BME280;54380;47.770;11.150;2022-09-29T13:05:25;93480.66;;;12.51;60.17
67545;BME280;54380;47.770;11.150;2022-09-29T13:08:27;93475.38;;;12.51;60.00
67545;BME280;54380;47.770;11.150;2022-09-29T13:11:38;93476.63;;;12.54;60.13
67545;BME280;54380;47.770;11.150;2022-09-29T13:14:29;93470.75;;;12.57;60.05
67545;BME280;54380;47.770;11.150;2022-09-29T13:17:08;93468.81;;;12.48;60.00
67545;BME280;54380;47.770;11.150;2022-09-29T13:19:55;93477.22;;;12.50;60.05
67545;BME280;54380;47.770;11.150;2022-09-29T13:22:55;93475.06;;;12.52;59.96
67545;BME280;54380;47.770;11.150;2022-09-29T13:25:31;93478.19;;;12.55;60.03